Gladstone, Virginia
Current Conditions -  °F | °C
As of 12:54 PM on Friday 28 Nov 2014 (Local Time) from KLYH Reporting Station
Clear Clear  
Wind Chill: 34°   Ceiling: Unl
Heat Index: 38°   Visibility: 10mi
Dew Point: 15°   Wind: 5mph
Humidity: 39%   Direction: NA
Pressure: 30.29"   Gusts: NA
Location:  37.55°N, 78.85°W
Report Text: KLYH 281754Z VRB04KT 10SM CLR 03/M09 A3029 RMK AO2 SLP264 T00331094 10039 21033 58016 $
Loading
Personal Weather Stations






























Interactive Weather Map New forecast layout! Learn more

10-Day Weather Forecast

Advertisements
Track Severe Weather on mobile